sensor_id;sensor_type;location;lat;lon;timestamp;temperature;humidity
5834;DHT22;2943;48.012;10.968;2022-12-18T00:02:13;-3.90;99.90
5834;DHT22;2943;48.012;10.968;2022-12-18T00:04:42;-3.90;99.90
5834;DHT22;2943;48.012;10.968;2022-12-18T00:07:09;-3.90;99.90
5834;DHT22;2943;48.012;10.968;2022-12-18T00:09:36;-3.90;99.90
5834;DHT22;2943;48.012;10.968;2022-12-18T00:12:03;-3.80;99.90
5834;DHT22;2943;48.012;10.968;2022-12-18T00:14:30;-3.80;99.90
5834;DHT22;2943;48.012;10.968;2022-12-18T00:16:57;-3.90;99.90
5834;DHT22;2943;48.012;10.968;2022-12-18T00:19:26;-3.90;99.90
5834;DHT22;2943;48.012;10.968;2022-12-18T00:21:55;-3.90;99.90
5834;DHT22;2943;48.012;10.968;2022-12-18T00:24:23;-3.80;99.90
5834;DHT22;2943;48.012;10.968;2022-12-18T00:26:50;-3.80;99.90
5834;DHT22;2943;48.012;10.968;2022-12-18T00:29:17;-3.90;99.90
5834;DHT22;2943;48.012;10.968;2022-12-18T00:31:44;-3.90;99.90
5834;DHT22;2943;48.012;10.968;2022-12-18T00:34:11;-3.90;99.90
5834;DHT22;2943;48.012;10.968;2022-12-18T00:36:39;-3.80;99.90
5834;DHT22;2943;48.012;10.968;2022-12-18T00:39:09;-3.90;99.90
5834;DHT22;2943;48.012;10.968;2022-12-18T00:41:36;-3.90;99.90
5834;DHT22;2943;48.012;10.968;2022-12-18T00:44:21;-3.90;99.90
5834;DHT22;2943;48.012;10.968;2022-12-18T00:46:48;-3.80;99.90
5834;DHT22;2943;48.012;10.968;2022-12-18T00:49:17;-3.80;99.90
5834;DHT22;2943;48.012;10.968;2022-12-18T00:51:44;-3.80;99.90
5834;DHT22;2943;48.012;10.968;2022-12-18T00:54:13;-3.80;99.90
5834;DHT22;2943;48.012;10.968;2022-12-18T00:56:40;-3.80;99.90
5834;DHT22;2943;48.012;10.968;2022-12-18T00:59:07;-3.80;99.90
5834;DHT22;2943;48.012;10.968;2022-12-18T01:01:34;-3.70;99.90
5834;DHT22;2943;48.012;10.968;2022-12-18T01:04:01;-3.70;99.90
5834;DHT22;2943;48.012;10.968;2022-12-18T01:06:30;-3.80;99.90
5834;DHT22;2943;48.012;10.968;2022-12-18T01:08:58;-3.70;99.90
5834;DHT22;2943;48.012;10.968;2022-12-18T01:11:26;-3.70;99.90
5834;DHT22;2943;48.012;10.968;2022-12-18T01:13:54;-3.80;99.90
5834;DHT22;2943;48.012;10.968;2022-12-18T01:16:21;-3.80;99.90
5834;DHT22;2943;48.012;10.968;2022-12-18T01:18:51;-3.80;99.90
5834;DHT22;2943;48.012;10.968;2022-12-18T01:21:18;-3.80;99.90
5834;DHT22;2943;48.012;10.968;2022-12-18T01:23:46;-3.90;99.90
5834;DHT22;2943;48.012;10.968;2022-12-18T01:26:15;-3.90;99.90
5834;DHT22;2943;48.012;10.968;2022-12-18T01:28:44;-3.90;99.90
5834;DHT22;2943;48.012;10.968;2022-12-18T01:31:12;-4.00;99.90
5834;DHT22;2943;48.012;10.968;2022-12-18T01:33:39;-4.00;99.90
5834;DHT22;2943;48.012;10.968;2022-12-18T01:36:07;-4.00;99.90
5834;DHT22;2943;48.012;10.968;2022-12-18T01:38:34;-4.00;99.90
5834;DHT22;2943;48.012;10.968;2022-12-18T01:41:01;-4.00;99.90
5834;DHT22;2943;48.012;10.968;2022-12-18T01:43:54;-4.10;99.90
5834;DHT22;2943;48.012;10.968;2022-12-18T01:46:23;-4.20;99.90
5834;DHT22;2943;48.012;10.968;2022-12-18T01:48:53;-4.20;99.90
5834;DHT22;2943;48.012;10.968;2022-12-18T01:51:21;-4.20;99.90
5834;DHT22;2943;48.012;10.968;2022-12-18T01:53:49;-4.20;99.90
5834;DHT22;2943;48.012;10.968;2022-12-18T01:56:18;-4.20;99.90
5834;DHT22;2943;48.012;10.968;2022-12-18T01:58:56;-4.20;99.90
5834;DHT22;2943;48.012;10.968;2022-12-18T02:01:24;-4.10;99.90
5834;DHT22;2943;48.012;10.968;2022-12-18T02:03:52;-4.10;99.90
5834;DHT22;2943;48.012;10.968;2022-12-18T02:06:23;-4.00;99.90
5834;DHT22;2943;48.012;10.968;2022-12-18T02:09:03;-4.00;99.90
5834;DHT22;2943;48.012;10.968;2022-12-18T02:11:41;-4.00;99.90
5834;DHT22;2943;48.012;10.968;2022-12-18T02:14:19;-3.90;99.90
5834;DHT22;2943;48.012;10.968;2022-12-18T02:16:52;-3.90;99.90
5834;DHT22;2943;48.012;10.968;2022-12-18T02:19:39;-3.90;99.90
5834;DHT22;2943;48.012;10.968;2022-12-18T02:22:17;-3.90;99.90
5834;DHT22;2943;48.012;10.968;2022-12-18T02:24:59;-3.90;99.90
5834;DHT22;2943;48.012;10.968;2022-12-18T02:27:30;-3.80;99.90
5834;DHT22;2943;48.012;10.968;2022-12-18T02:29:59;-3.90;99.90
5834;DHT22;2943;48.012;10.968;2022-12-18T02:32:31;-3.90;99.90
5834;DHT22;2943;48.012;10.968;2022-12-18T02:34:59;-3.90;99.90
5834;DHT22;2943;48.012;10.968;2022-12-18T02:37:29;-3.90;99.90
5834;DHT22;2943;48.012;10.968;2022-12-18T02:39:58;-3.90;99.90
5834;DHT22;2943;48.012;10.968;2022-12-18T02:42:26;-3.90;99.90
5834;DHT22;2943;48.012;10.968;2022-12-18T02:44:55;-3.90;99.90
5834;DHT22;2943;48.012;10.968;2022-12-18T02:47:24;-3.90;99.90
5834;DHT22;2943;48.012;10.968;2022-12-18T02:50:01;-3.90;99.90
5834;DHT22;2943;48.012;10.968;2022-12-18T02:52:34;-4.00;99.90
5834;DHT22;2943;48.012;10.968;2022-12-18T02:55:12;-4.00;99.90
5834;DHT22;2943;48.012;10.968;2022-12-18T02:57:44;-4.00;99.90
5834;DHT22;2943;48.012;10.968;2022-12-18T03:00:17;-4.00;99.90
5834;DHT22;2943;48.012;10.968;2022-12-18T03:02:48;-4.00;99.90
5834;DHT22;2943;48.012;10.968;2022-12-18T03:05:20;-4.00;99.90
5834;DHT22;2943;48.012;10.968;2022-12-18T03:07:51;-4.00;99.90
5834;DHT22;2943;48.012;10.968;2022-12-18T03:10:27;-4.00;99.90
5834;DHT22;2943;48.012;10.968;2022-12-18T03:12:59;-4.00;99.90
5834;DHT22;2943;48.012;10.968;2022-12-18T03:15:31;-4.10;99.90
5834;DHT22;2943;48.012;10.968;2022-12-18T03:18:04;-4.10;99.90
5834;DHT22;2943;48.012;10.968;2022-12-18T03:20:34;-4.00;99.90
5834;DHT22;2943;48.012;10.968;2022-12-18T03:23:06;-4.00;99.90
5834;DHT22;2943;48.012;10.968;2022-12-18T03:25:39;-4.00;99.90
5834;DHT22;2943;48.012;10.968;2022-12-18T03:28:12;-4.10;99.90
5834;DHT22;2943;48.012;10.968;2022-12-18T03:30:42;-4.10;99.90
5834;DHT22;2943;48.012;10.968;2022-12-18T03:33:13;-4.20;99.90
5834;DHT22;2943;48.012;10.968;2022-12-18T03:35:44;-4.30;99.90
5834;DHT22;2943;48.012;10.968;2022-12-18T03:38:11;-4.30;99.90
5834;DHT22;2943;48.012;10.968;2022-12-18T03:40:45;-4.20;99.90
5834;DHT22;2943;48.012;10.968;2022-12-18T03:43:20;-4.30;99.90
5834;DHT22;2943;48.012;10.968;2022-12-18T03:45:57;-4.30;99.90
5834;DHT22;2943;48.012;10.968;2022-12-18T03:48:31;-4.30;99.90
5834;DHT22;2943;48.012;10.968;2022-12-18T03:51:04;-4.30;99.90
5834;DHT22;2943;48.012;10.968;2022-12-18T03:53:37;-4.30;99.90
5834;DHT22;2943;48.012;10.968;2022-12-18T03:56:08;-4.30;99.90
5834;DHT22;2943;48.012;10.968;2022-12-18T03:58:37;-4.30;99.90
5834;DHT22;2943;48.012;10.968;2022-12-18T04:01:08;-4.30;99.90
5834;DHT22;2943;48.012;10.968;2022-12-18T04:03:36;-4.30;99.90
5834;DHT22;2943;48.012;10.968;2022-12-18T04:06:05;-4.30;99.90
5834;DHT22;2943;48.012;10.968;2022-12-18T04:08:33;-4.30;99.90
5834;DHT22;2943;48.012;10.968;2022-12-18T04:11:02;-4.20;99.90
5834;DHT22;2943;48.012;10.968;2022-12-18T04:13:32;-4.20;99.90
5834;DHT22;2943;48.012;10.968;2022-12-18T04:15:59;-4.20;99.90
5834;DHT22;2943;48.012;10.968;2022-12-18T04:18:27;-4.10;99.90
5834;DHT22;2943;48.012;10.968;2022-12-18T04:20:54;-4.20;99.90
5834;DHT22;2943;48.012;10.968;2022-12-18T04:23:21;-4.10;99.90
5834;DHT22;2943;48.012;10.968;2022-12-18T04:25:48;-4.10;99.90
5834;DHT22;2943;48.012;10.968;2022-12-18T04:28:15;-4.10;99.90
5834;DHT22;2943;48.012;10.968;2022-12-18T04:30:42;-4.10;99.90
5834;DHT22;2943;48.012;10.968;2022-12-18T04:33:09;-4.10;99.90
5834;DHT22;2943;48.012;10.968;2022-12-18T04:35:38;-4.10;99.90
5834;DHT22;2943;48.012;10.968;2022-12-18T04:38:05;-4.10;99.90
5834;DHT22;2943;48.012;10.968;2022-12-18T04:40:33;-4.00;99.90
5834;DHT22;2943;48.012;10.968;2022-12-18T04:43:00;-4.00;99.90
5834;DHT22;2943;48.012;10.968;2022-12-18T04:45:27;-4.00;99.90
5834;DHT22;2943;48.012;10.968;2022-12-18T04:47:54;-4.00;99.90
5834;DHT22;2943;48.012;10.968;2022-12-18T04:50:21;-4.00;99.90
5834;DHT22;2943;48.012;10.968;2022-12-18T04:52:49;-4.00;99.90
5834;DHT22;2943;48.012;10.968;2022-12-18T04:55:16;-4.10;99.90
5834;DHT22;2943;48.012;10.968;2022-12-18T04:57:43;-4.10;99.90
5834;DHT22;2943;48.012;10.968;2022-12-18T05:00:11;-4.10;99.90
5834;DHT22;2943;48.012;10.968;2022-12-18T05:02:38;-4.10;99.90
5834;DHT22;2943;48.012;10.968;2022-12-18T05:05:06;-4.10;99.90
5834;DHT22;2943;48.012;10.968;2022-12-18T05:07:33;-4.10;99.90
5834;DHT22;2943;48.012;10.968;2022-12-18T05:10:01;-4.10;99.90
5834;DHT22;2943;48.012;10.968;2022-12-18T05:12:28;-4.10;99.90
5834;DHT22;2943;48.012;10.968;2022-12-18T05:14:55;-4.10;99.90
5834;DHT22;2943;48.012;10.968;2022-12-18T05:17:22;-4.10;99.90
5834;DHT22;2943;48.012;10.968;2022-12-18T05:19:49;-4.00;99.90
5834;DHT22;2943;48.012;10.968;2022-12-18T05:22:16;-4.00;99.90
5834;DHT22;2943;48.012;10.968;2022-12-18T05:24:43;-4.00;99.90
5834;DHT22;2943;48.012;10.968;2022-12-18T05:27:11;-4.00;99.90
5834;DHT22;2943;48.012;10.968;2022-12-18T05:29:38;-4.00;99.90
5834;DHT22;2943;48.012;10.968;2022-12-18T05:32:04;-4.00;99.90
5834;DHT22;2943;48.012;10.968;2022-12-18T05:34:31;-4.00;99.90
5834;DHT22;2943;48.012;10.968;2022-12-18T05:36:58;-4.00;99.90
5834;DHT22;2943;48.012;10.968;2022-12-18T05:39:25;-4.00;99.90
5834;DHT22;2943;48.012;10.968;2022-12-18T05:41:52;-4.00;99.90
5834;DHT22;2943;48.012;10.968;2022-12-18T05:44:20;-4.00;99.90
5834;DHT22;2943;48.012;10.968;2022-12-18T05:46:47;-4.00;99.90
5834;DHT22;2943;48.012;10.968;2022-12-18T05:49:14;-4.00;99.90
5834;DHT22;2943;48.012;10.968;2022-12-18T05:51:41;-4.00;99.90
5834;DHT22;2943;48.012;10.968;2022-12-18T05:54:08;-3.90;99.90
5834;DHT22;2943;48.012;10.968;2022-12-18T05:56:35;-3.90;99.90
5834;DHT22;2943;48.012;10.968;2022-12-18T05:59:02;-4.00;99.90
5834;DHT22;2943;48.012;10.968;2022-12-18T06:01:30;-3.90;99.90
5834;DHT22;2943;48.012;10.968;2022-12-18T06:03:57;-3.90;99.90
5834;DHT22;2943;48.012;10.968;2022-12-18T06:06:26;-3.90;99.90
5834;DHT22;2943;48.012;10.968;2022-12-18T06:08:54;-3.90;99.90
5834;DHT22;2943;48.012;10.968;2022-12-18T06:11:22;-3.90;99.90
5834;DHT22;2943;48.012;10.968;2022-12-18T06:13:50;-3.90;99.90
5834;DHT22;2943;48.012;10.968;2022-12-18T06:16:17;-3.90;99.90
5834;DHT22;2943;48.012;10.968;2022-12-18T06:18:46;-4.00;99.90
5834;DHT22;2943;48.012;10.968;2022-12-18T06:21:13;-4.10;99.90
5834;DHT22;2943;48.012;10.968;2022-12-18T06:23:40;-4.10;99.90
5834;DHT22;2943;48.012;10.968;2022-12-18T06:26:09;-4.10;99.90
5834;DHT22;2943;48.012;10.968;2022-12-18T06:28:37;-4.10;99.90
5834;DHT22;2943;48.012;10.968;2022-12-18T06:31:05;-4.10;99.90
5834;DHT22;2943;48.012;10.968;2022-12-18T06:33:32;-4.10;99.90
5834;DHT22;2943;48.012;10.968;2022-12-18T06:36:03;-4.10;99.90
5834;DHT22;2943;48.012;10.968;2022-12-18T06:38:31;-4.10;99.90
5834;DHT22;2943;48.012;10.968;2022-12-18T06:40:58;-4.10;99.90
5834;DHT22;2943;48.012;10.968;2022-12-18T06:43:25;-4.10;99.90
5834;DHT22;2943;48.012;10.968;2022-12-18T06:45:58;-4.20;99.90
5834;DHT22;2943;48.012;10.968;2022-12-18T06:48:25;-4.20;99.90
5834;DHT22;2943;48.012;10.968;2022-12-18T06:50:53;-4.20;99.90
5834;DHT22;2943;48.012;10.968;2022-12-18T06:53:21;-4.20;99.90
5834;DHT22;2943;48.012;10.968;2022-12-18T06:55:48;-4.10;99.90
5834;DHT22;2943;48.012;10.968;2022-12-18T06:58:16;-4.10;99.90
5834;DHT22;2943;48.012;10.968;2022-12-18T07:00:43;-4.10;99.90
5834;DHT22;2943;48.012;10.968;2022-12-18T07:03:10;-4.10;99.90
5834;DHT22;2943;48.012;10.968;2022-12-18T07:05:39;-4.00;99.90
5834;DHT22;2943;48.012;10.968;2022-12-18T07:08:07;-4.00;99.90
5834;DHT22;2943;48.012;10.968;2022-12-18T07:10:40;-4.00;99.90
5834;DHT22;2943;48.012;10.968;2022-12-18T07:13:07;-4.00;99.90
5834;DHT22;2943;48.012;10.968;2022-12-18T07:15:34;-4.00;99.90
5834;DHT22;2943;48.012;10.968;2022-12-18T07:18:02;-4.00;99.90
5834;DHT22;2943;48.012;10.968;2022-12-18T07:20:29;-4.10;99.90
5834;DHT22;2943;48.012;10.968;2022-12-18T07:22:56;-4.20;99.90
5834;DHT22;2943;48.012;10.968;2022-12-18T07:25:23;-4.20;99.90
5834;DHT22;2943;48.012;10.968;2022-12-18T07:27:51;-4.30;99.90
5834;DHT22;2943;48.012;10.968;2022-12-18T07:30:18;-4.20;99.90
5834;DHT22;2943;48.012;10.968;2022-12-18T07:32:45;-4.20;99.90
5834;DHT22;2943;48.012;10.968;2022-12-18T07:35:12;-4.10;99.90
5834;DHT22;2943;48.012;10.968;2022-12-18T07:37:39;-4.10;99.90
5834;DHT22;2943;48.012;10.968;2022-12-18T07:40:07;-4.10;99.90
5834;DHT22;2943;48.012;10.968;2022-12-18T07:42:34;-4.10;99.90
5834;DHT22;2943;48.012;10.968;2022-12-18T07:45:04;-4.20;99.90
5834;DHT22;2943;48.012;10.968;2022-12-18T07:47:34;-4.20;99.90
5834;DHT22;2943;48.012;10.968;2022-12-18T07:50:02;-4.20;99.90
5834;DHT22;2943;48.012;10.968;2022-12-18T07:52:28;-4.20;99.90
5834;DHT22;2943;48.012;10.968;2022-12-18T07:54:55;-4.10;99.90
5834;DHT22;2943;48.012;10.968;2022-12-18T07:57:22;-4.10;99.90
5834;DHT22;2943;48.012;10.968;2022-12-18T07:59:49;-4.10;99.90
5834;DHT22;2943;48.012;10.968;2022-12-18T08:02:17;-4.10;99.90
5834;DHT22;2943;48.012;10.968;2022-12-18T08:04:44;-4.20;99.90
5834;DHT22;2943;48.012;10.968;2022-12-18T08:07:11;-4.20;99.90
5834;DHT22;2943;48.012;10.968;2022-12-18T08:09:38;-4.20;99.90
5834;DHT22;2943;48.012;10.968;2022-12-18T08:12:05;-4.20;99.90
5834;DHT22;2943;48.012;10.968;2022-12-18T08:14:32;-4.20;99.90
5834;DHT22;2943;48.012;10.968;2022-12-18T08:16:59;-4.30;99.90
5834;DHT22;2943;48.012;10.968;2022-12-18T08:19:28;-4.30;99.90
5834;DHT22;2943;48.012;10.968;2022-12-18T08:21:54;-4.30;99.90
5834;DHT22;2943;48.012;10.968;2022-12-18T08:24:22;-4.40;99.90
5834;DHT22;2943;48.012;10.968;2022-12-18T08:26:49;-4.40;99.90
5834;DHT22;2943;48.012;10.968;2022-12-18T08:29:16;-4.30;99.90
5834;DHT22;2943;48.012;10.968;2022-12-18T08:31:43;-4.30;99.90
5834;DHT22;2943;48.012;10.968;2022-12-18T08:34:10;-4.30;99.90
5834;DHT22;2943;48.012;10.968;2022-12-18T08:36:38;-4.30;99.90
5834;DHT22;2943;48.012;10.968;2022-12-18T08:39:05;-4.20;99.90
5834;DHT22;2943;48.012;10.968;2022-12-18T08:41:32;-4.20;99.90
5834;DHT22;2943;48.012;10.968;2022-12-18T08:43:59;-4.20;99.90
5834;DHT22;2943;48.012;10.968;2022-12-18T08:46:43;-4.20;99.90
5834;DHT22;2943;48.012;10.968;2022-12-18T08:49:11;-4.10;99.90
5834;DHT22;2943;48.012;10.968;2022-12-18T08:51:40;-4.00;99.90
5834;DHT22;2943;48.012;10.968;2022-12-18T08:54:07;-4.00;99.90
5834;DHT22;2943;48.012;10.968;2022-12-18T08:56:35;-3.90;99.90
5834;DHT22;2943;48.012;10.968;2022-12-18T08:59:02;-3.90;99.90
5834;DHT22;2943;48.012;10.968;2022-12-18T09:01:30;-3.90;99.90
5834;DHT22;2943;48.012;10.968;2022-12-18T09:03:59;-3.80;99.90
5834;DHT22;2943;48.012;10.968;2022-12-18T09:06:26;-3.70;99.90
5834;DHT22;2943;48.012;10.968;2022-12-18T09:08:54;-3.70;99.90
5834;DHT22;2943;48.012;10.968;2022-12-18T09:11:24;-3.70;99.90
5834;DHT22;2943;48.012;10.968;2022-12-18T09:13:52;-3.60;99.90
5834;DHT22;2943;48.012;10.968;2022-12-18T09:16:21;-3.60;99.90
5834;DHT22;2943;48.012;10.968;2022-12-18T09:18:48;-3.60;99.90
5834;DHT22;2943;48.012;10.968;2022-12-18T09:21:17;-3.50;99.90
5834;DHT22;2943;48.012;10.968;2022-12-18T09:23:49;-3.60;99.90
5834;DHT22;2943;48.012;10.968;2022-12-18T09:26:17;-3.50;99.90
5834;DHT22;2943;48.012;10.968;2022-12-18T09:28:44;-3.50;99.90
5834;DHT22;2943;48.012;10.968;2022-12-18T09:31:12;-3.50;99.90
5834;DHT22;2943;48.012;10.968;2022-12-18T09:33:40;-3.40;99.90
5834;DHT22;2943;48.012;10.968;2022-12-18T09:36:09;-3.40;99.90
5834;DHT22;2943;48.012;10.968;2022-12-18T09:38:37;-3.30;99.90
5834;DHT22;2943;48.012;10.968;2022-12-18T09:41:13;-3.30;99.90
5834;DHT22;2943;48.012;10.968;2022-12-18T09:43:50;-3.30;99.90
5834;DHT22;2943;48.012;10.968;2022-12-18T09:46:24;-3.30;99.90
5834;DHT22;2943;48.012;10.968;2022-12-18T09:48:58;-3.40;99.90
5834;DHT22;2943;48.012;10.968;2022-12-18T09:51:28;-3.40;99.90
5834;DHT22;2943;48.012;10.968;2022-12-18T09:53:59;-3.40;99.90
5834;DHT22;2943;48.012;10.968;2022-12-18T09:56:29;-3.40;99.90
5834;DHT22;2943;48.012;10.968;2022-12-18T09:59:01;-3.40;99.90
5834;DHT22;2943;48.012;10.968;2022-12-18T10:01:30;-3.30;99.90
5834;DHT22;2943;48.012;10.968;2022-12-18T10:03:58;-3.20;99.90
5834;DHT22;2943;48.012;10.968;2022-12-18T10:06:32;-3.10;99.90
5834;DHT22;2943;48.012;10.968;2022-12-18T10:09:07;-3.00;99.90
5834;DHT22;2943;48.012;10.968;2022-12-18T10:11:43;-2.90;99.90
5834;DHT22;2943;48.012;10.968;2022-12-18T10:14:20;-2.90;99.90
5834;DHT22;2943;48.012;10.968;2022-12-18T10:16:58;-2.80;99.90
5834;DHT22;2943;48.012;10.968;2022-12-18T10:19:40;-2.80;99.90
5834;DHT22;2943;48.012;10.968;2022-12-18T10:22:21;-3.00;99.90
5834;DHT22;2943;48.012;10.968;2022-12-18T10:24:54;-3.00;99.90
5834;DHT22;2943;48.012;10.968;2022-12-18T10:27:24;-3.00;99.90
5834;DHT22;2943;48.012;10.968;2022-12-18T10:29:53;-3.00;99.90
5834;DHT22;2943;48.012;10.968;2022-12-18T10:32:22;-2.90;99.90
5834;DHT22;2943;48.012;10.968;2022-12-18T10:34:54;-2.90;99.90
5834;DHT22;2943;48.012;10.968;2022-12-18T10:37:26;-3.00;99.90
5834;DHT22;2943;48.012;10.968;2022-12-18T10:40:14;-3.10;99.90
5834;DHT22;2943;48.012;10.968;2022-12-18T10:42:42;-3.20;99.90
5834;DHT22;2943;48.012;10.968;2022-12-18T10:45:14;-3.20;99.90
5834;DHT22;2943;48.012;10.968;2022-12-18T10:47:46;-3.00;99.90
5834;DHT22;2943;48.012;10.968;2022-12-18T10:50:22;-2.90;99.90
5834;DHT22;2943;48.012;10.968;2022-12-18T10:52:55;-2.70;99.90
5834;DHT22;2943;48.012;10.968;2022-12-18T10:55:27;-2.60;99.90
5834;DHT22;2943;48.012;10.968;2022-12-18T10:58:15;-2.60;99.90
5834;DHT22;2943;48.012;10.968;2022-12-18T11:00:45;-2.50;99.90
5834;DHT22;2943;48.012;10.968;2022-12-18T11:03:31;-2.40;99.90
5834;DHT22;2943;48.012;10.968;2022-12-18T11:06:03;-2.20;99.90
5834;DHT22;2943;48.012;10.968;2022-12-18T11:08:30;-2.10;99.90
5834;DHT22;2943;48.012;10.968;2022-12-18T11:10:57;-1.90;99.90
5834;DHT22;2943;48.012;10.968;2022-12-18T11:13:25;-1.90;99.90
5834;DHT22;2943;48.012;10.968;2022-12-18T11:15:55;-1.80;99.90
5834;DHT22;2943;48.012;10.968;2022-12-18T11:18:26;-1.70;99.90
5834;DHT22;2943;48.012;10.968;2022-12-18T11:20:55;-1.70;99.90
5834;DHT22;2943;48.012;10.968;2022-12-18T11:23:23;-1.80;99.90
5834;DHT22;2943;48.012;10.968;2022-12-18T11:25:55;-1.80;99.90
5834;DHT22;2943;48.012;10.968;2022-12-18T11:28:28;-1.90;99.90
5834;DHT22;2943;48.012;10.968;2022-12-18T11:31:21;-1.90;99.90
5834;DHT22;2943;48.012;10.968;2022-12-18T11:33:54;-1.80;99.90
5834;DHT22;2943;48.012;10.968;2022-12-18T11:36:23;-1.80;99.90
5834;DHT22;2943;48.012;10.968;2022-12-18T11:38:52;-1.70;99.90
5834;DHT22;2943;48.012;10.968;2022-12-18T11:41:25;-1.70;99.90
5834;DHT22;2943;48.012;10.968;2022-12-18T11:44:17;-1.70;99.90
5834;DHT22;2943;48.012;10.968;2022-12-18T11:46:49;-1.80;99.90
5834;DHT22;2943;48.012;10.968;2022-12-18T11:49:21;-1.90;99.90
5834;DHT22;2943;48.012;10.968;2022-12-18T11:51:53;-1.80;99.90
5834;DHT22;2943;48.012;10.968;2022-12-18T11:54:23;-1.80;99.90
5834;DHT22;2943;48.012;10.968;2022-12-18T11:56:53;-1.70;99.90
5834;DHT22;2943;48.012;10.968;2022-12-18T11:59:29;-1.70;99.90
5834;DHT22;2943;48.012;10.968;2022-12-18T12:02:11;-1.60;99.90
5834;DHT22;2943;48.012;10.968;2022-12-18T12:07:36;-1.50;99.90
5834;DHT22;2943;48.012;10.968;2022-12-18T12:10:19;-1.40;99.90
5834;DHT22;2943;48.012;10.968;2022-12-18T12:13:01;-1.40;99.90
5834;DHT22;2943;48.012;10.968;2022-12-18T12:15:38;-1.30;99.90
5834;DHT22;2943;48.012;10.968;2022-12-18T12:18:19;-1.30;99.90
5834;DHT22;2943;48.012;10.968;2022-12-18T12:20:56;-1.30;99.90
5834;DHT22;2943;48.012;10.968;2022-12-18T12:23:32;-1.40;99.90
5834;DHT22;2943;48.012;10.968;2022-12-18T12:26:06;-1.30;99.90
5834;DHT22;2943;48.012;10.968;2022-12-18T12:28:55;-1.20;99.90
5834;DHT22;2943;48.012;10.968;2022-12-18T12:31:33;-1.20;99.90
5834;DHT22;2943;48.012;10.968;2022-12-18T12:34:09;-1.20;99.90
5834;DHT22;2943;48.012;10.968;2022-12-18T12:36:42;-1.10;99.90
5834;DHT22;2943;48.012;10.968;2022-12-18T12:39:15;-1.00;99.90
5834;DHT22;2943;48.012;10.968;2022-12-18T12:41:45;-0.90;99.90
5834;DHT22;2943;48.012;10.968;2022-12-18T12:44:34;-0.90;99.90
5834;DHT22;2943;48.012;10.968;2022-12-18T12:47:09;-0.80;99.90
5834;DHT22;2943;48.012;10.968;2022-12-18T12:49:39;-0.80;99.90
5834;DHT22;2943;48.012;10.968;2022-12-18T12:52:17;-0.70;99.90
5834;DHT22;2943;48.012;10.968;2022-12-18T12:54:48;-0.70;99.90
5834;DHT22;2943;48.012;10.968;2022-12-18T12:57:19;-0.60;99.90
5834;DHT22;2943;48.012;10.968;2022-12-18T12:59:51;-0.70;99.90
5834;DHT22;2943;48.012;10.968;2022-12-18T13:02:26;-0.70;99.90
5834;DHT22;2943;48.012;10.968;2022-12-18T13:05:01;-0.70;99.90
5834;DHT22;2943;48.012;10.968;2022-12-18T13:07:35;-0.70;99.90
5834;DHT22;2943;48.012;10.968;2022-12-18T13:10:27;-0.70;99.90
5834;DHT22;2943;48.012;10.968;2022-12-18T13:12:59;-0.80;99.90
5834;DHT22;2943;48.012;10.968;2022-12-18T13:15:30;-0.80;99.90
5834;DHT22;2943;48.012;10.968;2022-12-18T13:18:19;-0.80;99.90
5834;DHT22;2943;48.012;10.968;2022-12-18T13:20:49;-0.80;99.90
5834;DHT22;2943;48.012;10.968;2022-12-18T13:23:34;-0.90;99.90
5834;DHT22;2943;48.012;10.968;2022-12-18T13:26:32;-0.90;99.90
5834;DHT22;2943;48.012;10.968;2022-12-18T13:29:00;-0.90;99.90
5834;DHT22;2943;48.012;10.968;2022-12-18T13:31:58;-0.90;99.90
5834;DHT22;2943;48.012;10.968;2022-12-18T13:34:29;-0.80;99.90
5834;DHT22;2943;48.012;10.968;2022-12-18T13:40:05;-0.80;99.90
5834;DHT22;2943;48.012;10.968;2022-12-18T13:42:47;-0.80;99.90
5834;DHT22;2943;48.012;10.968;2022-12-18T13:45:38;-0.80;99.90
5834;DHT22;2943;48.012;10.968;2022-12-18T13:48:19;-0.80;99.90
5834;DHT22;2943;48.012;10.968;2022-12-18T13:50:49;-0.90;99.90
5834;DHT22;2943;48.012;10.968;2022-12-18T13:53:23;-0.90;99.90
5834;DHT22;2943;48.012;10.968;2022-12-18T13:55:51;-1.00;99.90
5834;DHT22;2943;48.012;10.968;2022-12-18T13:58:18;-1.10;99.90
5834;DHT22;2943;48.012;10.968;2022-12-18T14:00:45;-1.10;99.90
5834;DHT22;2943;48.012;10.968;2022-12-18T14:03:21;-1.10;99.90
5834;DHT22;2943;48.012;10.968;2022-12-18T14:05:57;-1.10;99.90
5834;DHT22;2943;48.012;10.968;2022-12-18T14:08:29;-0.50;99.90
5834;DHT22;2943;48.012;10.968;2022-12-18T14:10:58;-0.30;99.90
5834;DHT22;2943;48.012;10.968;2022-12-18T14:13:29;-0.30;99.90
5834;DHT22;2943;48.012;10.968;2022-12-18T14:15:57;-0.40;99.90
5834;DHT22;2943;48.012;10.968;2022-12-18T14:18:38;-0.40;99.90
5834;DHT22;2943;48.012;10.968;2022-12-18T14:21:18;-0.40;99.90
5834;DHT22;2943;48.012;10.968;2022-12-18T14:23:47;-0.40;99.90
5834;DHT22;2943;48.012;10.968;2022-12-18T14:26:23;-0.40;99.90
5834;DHT22;2943;48.012;10.968;2022-12-18T14:28:52;-0.50;99.90
5834;DHT22;2943;48.012;10.968;2022-12-18T14:31:22;0.00;99.90
5834;DHT22;2943;48.012;10.968;2022-12-18T14:33:49;0.20;99.90
5834;DHT22;2943;48.012;10.968;2022-12-18T14:36:18;0.10;99.90
5834;DHT22;2943;48.012;10.968;2022-12-18T14:38:51;-0.10;99.90
5834;DHT22;2943;48.012;10.968;2022-12-18T14:41:20;-0.30;99.90
5834;DHT22;2943;48.012;10.968;2022-12-18T14:43:49;-0.50;99.90
5834;DHT22;2943;48.012;10.968;2022-12-18T14:46:32;-0.70;99.90
5834;DHT22;2943;48.012;10.968;2022-12-18T14:49:02;-0.90;99.90
5834;DHT22;2943;48.012;10.968;2022-12-18T14:51:31;-1.00;99.90
5834;DHT22;2943;48.012;10.968;2022-12-18T14:54:01;-0.90;99.90
5834;DHT22;2943;48.012;10.968;2022-12-18T14:56:31;-0.60;99.90
5834;DHT22;2943;48.012;10.968;2022-12-18T14:58:59;-0.50;99.90
5834;DHT22;2943;48.012;10.968;2022-12-18T15:01:29;-0.60;99.90
5834;DHT22;2943;48.012;10.968;2022-12-18T15:03:58;-0.70;99.90
5834;DHT22;2943;48.012;10.968;2022-12-18T15:06:31;-0.80;99.90
5834;DHT22;2943;48.012;10.968;2022-12-18T15:09:01;-1.00;99.90
5834;DHT22;2943;48.012;10.968;2022-12-18T15:11:45;-1.10;99.90
5834;DHT22;2943;48.012;10.968;2022-12-18T15:17:06;-1.40;99.90
5834;DHT22;2943;48.012;10.968;2022-12-18T15:19:41;-1.40;99.90
5834;DHT22;2943;48.012;10.968;2022-12-18T15:22:26;-1.50;99.90
5834;DHT22;2943;48.012;10.968;2022-12-18T15:24:55;-1.60;99.90
5834;DHT22;2943;48.012;10.968;2022-12-18T15:27:29;-1.60;99.90
5834;DHT22;2943;48.012;10.968;2022-12-18T15:30:20;-1.70;99.90
5834;DHT22;2943;48.012;10.968;2022-12-18T15:32:47;-1.80;99.90
5834;DHT22;2943;48.012;10.968;2022-12-18T15:35:21;-1.80;99.90
5834;DHT22;2943;48.012;10.968;2022-12-18T15:37:49;-1.90;99.90
5834;DHT22;2943;48.012;10.968;2022-12-18T15:40:19;-2.00;99.90
5834;DHT22;2943;48.012;10.968;2022-12-18T15:42:47;-2.10;99.90
5834;DHT22;2943;48.012;10.968;2022-12-18T15:45:32;-2.10;99.90
5834;DHT22;2943;48.012;10.968;2022-12-18T15:48:04;-2.20;99.90
5834;DHT22;2943;48.012;10.968;2022-12-18T15:50:31;-2.30;99.90
5834;DHT22;2943;48.012;10.968;2022-12-18T15:52:58;-2.30;99.90
5834;DHT22;2943;48.012;10.968;2022-12-18T15:55:27;-2.40;99.90
5834;DHT22;2943;48.012;10.968;2022-12-18T15:58:11;-2.50;99.90
5834;DHT22;2943;48.012;10.968;2022-12-18T16:00:39;-2.50;99.90
5834;DHT22;2943;48.012;10.968;2022-12-18T16:03:07;-2.60;99.90
5834;DHT22;2943;48.012;10.968;2022-12-18T16:05:35;-2.60;99.90
5834;DHT22;2943;48.012;10.968;2022-12-18T16:08:01;-2.60;99.90
5834;DHT22;2943;48.012;10.968;2022-12-18T16:10:30;-2.70;99.90
5834;DHT22;2943;48.012;10.968;2022-12-18T16:12:57;-2.70;99.90
5834;DHT22;2943;48.012;10.968;2022-12-18T16:15:24;-2.80;99.90
5834;DHT22;2943;48.012;10.968;2022-12-18T16:17:51;-2.90;99.90
5834;DHT22;2943;48.012;10.968;2022-12-18T16:20:19;-2.90;99.90